createdAt,value
2019-05-05T00:00:37.078Z,1010.65
2019-05-05T00:01:37.054Z,1010.67
2019-05-05T00:02:37.042Z,1010.65
2019-05-05T00:03:37.017Z,1010.64
2019-05-05T00:04:36.978Z,1010.66
2019-05-05T00:05:36.952Z,1010.67
2019-05-05T00:06:36.958Z,1010.63
2019-05-05T00:07:36.910Z,1010.65
2019-05-05T00:08:36.885Z,1010.60
2019-05-05T00:09:36.851Z,1010.67
2019-05-05T00:10:36.840Z,1010.70
2019-05-05T00:11:36.808Z,1010.65
2019-05-05T00:12:36.777Z,1010.72
2019-05-05T00:13:36.748Z,1010.66
2019-05-05T00:14:36.721Z,1010.70
2019-05-05T00:15:36.702Z,1010.70
2019-05-05T00:16:36.673Z,1010.68
2019-05-05T00:17:36.646Z,1010.67
2019-05-05T00:18:36.629Z,1010.67
2019-05-05T00:19:36.596Z,1010.69
2019-05-05T00:20:36.586Z,1010.71
2019-05-05T00:21:36.549Z,1010.69
2019-05-05T00:22:36.527Z,1010.69
2019-05-05T00:23:36.507Z,1010.72
2019-05-05T00:24:36.468Z,1010.70
2019-05-05T00:25:36.446Z,1010.71
2019-05-05T00:26:36.417Z,1010.71
2019-05-05T00:27:36.396Z,1010.69
2019-05-05T00:28:36.370Z,1010.68
2019-05-05T00:29:36.357Z,1010.70
2019-05-05T00:30:36.315Z,1010.73
2019-05-05T00:31:36.290Z,1010.75
2019-05-05T00:32:36.272Z,1010.74
2019-05-05T00:33:36.243Z,1010.70
2019-05-05T00:34:36.210Z,1010.72
2019-05-05T00:35:36.188Z,1010.74
2019-05-05T00:36:36.169Z,1010.76
2019-05-05T00:37:36.137Z,1010.75
2019-05-05T00:38:36.122Z,1010.77
2019-05-05T00:39:36.089Z,1010.78
2019-05-05T00:40:36.069Z,1010.78
2019-05-05T00:41:36.039Z,1010.78
2019-05-05T00:42:36.009Z,1010.77
2019-05-05T00:43:35.985Z,1010.78
2019-05-05T00:44:35.958Z,1010.80
2019-05-05T00:45:35.935Z,1010.83
2019-05-05T00:46:35.912Z,1010.83
2019-05-05T00:47:35.883Z,1010.86
2019-05-05T00:48:35.856Z,1010.84
2019-05-05T00:49:45.568Z,1010.85
2019-05-05T00:50:35.807Z,1010.87
2019-05-05T00:51:35.781Z,1010.88
2019-05-05T00:52:35.751Z,1010.83
2019-05-05T00:53:35.726Z,1010.86
2019-05-05T00:54:35.701Z,1010.86
2019-05-05T00:55:35.676Z,1010.86
2019-05-05T00:56:35.649Z,1010.86
2019-05-05T00:57:35.634Z,1010.89
2019-05-05T00:58:35.601Z,1010.90
2019-05-05T00:59:35.579Z,1010.88
2019-05-05T01:00:35.555Z,1010.88
2019-05-05T01:01:35.522Z,1010.87
2019-05-05T01:02:35.495Z,1010.90
2019-05-05T01:03:35.470Z,1010.89
2019-05-05T01:04:35.444Z,1010.91
2019-05-05T01:05:35.422Z,1010.90
2019-05-05T01:06:35.395Z,1010.87
2019-05-05T01:07:35.371Z,1010.88
2019-05-05T01:08:35.437Z,1010.89
2019-05-05T01:09:35.324Z,1010.89
2019-05-05T01:10:35.412Z,1010.86
2019-05-05T01:11:35.645Z,1010.86
2019-05-05T01:12:35.237Z,1010.86
2019-05-05T01:13:35.278Z,1010.90
2019-05-05T01:14:35.188Z,1010.93
2019-05-05T01:15:35.171Z,1010.97
2019-05-05T01:16:35.259Z,1010.98
2019-05-05T01:17:35.114Z,1010.97
2019-05-05T01:18:35.288Z,1011.04
2019-05-05T01:19:35.062Z,1010.97
2019-05-05T01:20:35.034Z,1011.02
2019-05-05T01:21:35.039Z,1011.01
2019-05-05T01:22:34.985Z,1011.02
2019-05-05T01:23:35.123Z,1011.03
2019-05-05T01:24:34.931Z,1011.06
2019-05-05T01:25:34.906Z,1011.04
2019-05-05T01:26:35.487Z,1011.04
2019-05-05T01:27:34.864Z,1011.01
2019-05-05T01:28:35.547Z,1011.01
2019-05-05T01:29:34.803Z,1011.01
2019-05-05T01:30:35.090Z,1011.02
2019-05-05T01:31:34.822Z,1011.00
2019-05-05T01:32:35.137Z,1011.02
2019-05-05T01:33:34.701Z,1011.00
2019-05-05T01:34:34.889Z,1010.98
2019-05-05T01:35:34.648Z,1011.00
2019-05-05T01:36:34.700Z,1011.02
2019-05-05T01:37:34.895Z,1011.01
2019-05-05T01:38:34.580Z,1010.97
2019-05-05T01:39:34.730Z,1010.98
2019-05-05T01:40:35.350Z,1010.98
2019-05-05T01:41:34.885Z,1011.00
2019-05-05T01:42:35.247Z,1010.99
2019-05-05T01:43:34.685Z,1011.00
2019-05-05T01:44:35.244Z,1010.98
2019-05-05T01:45:34.790Z,1011.00
2019-05-05T01:46:35.289Z,1011.03
2019-05-05T01:47:34.767Z,1010.99
2019-05-05T01:48:35.117Z,1011.02
2019-05-05T01:49:34.552Z,1011.02
2019-05-05T01:50:34.982Z,1011.04
2019-05-05T01:51:35.404Z,1011.03
2019-05-05T01:52:34.528Z,1011.03
2019-05-05T01:53:34.975Z,1011.07
2019-05-05T01:54:35.284Z,1011.06
2019-05-05T01:55:34.746Z,1011.07
2019-05-05T01:56:35.204Z,1011.08
2019-05-05T01:57:34.529Z,1011.07
2019-05-05T01:58:34.880Z,1011.05
2019-05-05T01:59:35.353Z,1011.09
2019-05-05T02:00:34.843Z,1011.06
2019-05-05T02:01:35.189Z,1011.06
2019-05-05T02:02:34.303Z,1011.07
2019-05-05T02:03:35.010Z,1011.11
2019-05-05T02:04:34.396Z,1011.09
2019-05-05T02:05:34.845Z,1011.09
2019-05-05T02:06:35.032Z,1011.08
2019-05-05T02:07:34.280Z,1011.07
2019-05-05T02:08:34.917Z,1011.07
2019-05-05T02:09:35.378Z,1011.07
2019-05-05T02:10:34.881Z,1011.06
2019-05-05T02:11:35.301Z,1011.04
2019-05-05T02:12:35.285Z,1011.04
2019-05-05T02:13:34.623Z,1011.04
2019-05-05T02:14:35.212Z,1011.00
2019-05-05T02:15:34.382Z,1011.03
2019-05-05T02:16:34.732Z,1010.97
2019-05-05T02:17:35.262Z,1011.01
2019-05-05T02:18:34.523Z,1010.97
2019-05-05T02:19:35.063Z,1011.00
2019-05-05T02:20:34.286Z,1010.99
2019-05-05T02:21:35.273Z,1011.01
2019-05-05T02:22:35.527Z,1011.00
2019-05-05T02:23:35.140Z,1011.01
2019-05-05T02:24:35.370Z,1011.01
2019-05-05T02:25:34.587Z,1011.00
2019-05-05T02:26:35.050Z,1010.97
2019-05-05T02:27:34.331Z,1010.98
2019-05-05T02:28:34.729Z,1010.93
2019-05-05T02:29:35.221Z,1010.97
2019-05-05T02:30:35.961Z,1010.93
2019-05-05T02:31:35.926Z,1010.92
2019-05-05T02:32:35.927Z,1010.95
2019-05-05T02:33:35.350Z,1010.96
2019-05-05T02:34:35.663Z,1010.93
2019-05-05T02:35:35.314Z,1010.99
2019-05-05T02:36:35.456Z,1010.99
2019-05-05T02:37:35.550Z,1010.93
2019-05-05T02:38:35.546Z,1010.95
2019-05-05T02:39:35.254Z,1010.93
2019-05-05T02:40:35.033Z,1010.93
2019-05-05T02:41:34.807Z,1010.96
2019-05-05T02:42:35.451Z,1010.96
2019-05-05T02:43:34.462Z,1010.94
2019-05-05T02:44:34.725Z,1010.98
2019-05-05T02:45:35.213Z,1010.99
2019-05-05T02:46:35.707Z,1010.99
2019-05-05T02:47:34.854Z,1010.97
2019-05-05T02:48:35.367Z,1011.00
2019-05-05T02:49:35.145Z,1010.99
2019-05-05T02:50:48.236Z,1011.03
2019-05-05T02:51:35.219Z,1011.03
2019-05-05T02:52:34.659Z,1011.02
2019-05-05T02:53:34.019Z,1011.03
2019-05-05T02:54:33.868Z,1011.05
2019-05-05T02:55:34.672Z,1011.11
2019-05-05T02:56:34.195Z,1011.11
2019-05-05T02:57:34.461Z,1011.12
2019-05-05T02:58:33.965Z,1011.14
2019-05-05T02:59:32.491Z,1011.12
2019-05-05T03:00:34.333Z,1011.17
2019-05-05T03:01:34.062Z,1011.22
2019-05-05T03:02:32.414Z,1011.19
2019-05-05T03:03:34.285Z,1011.18
2019-05-05T03:04:33.651Z,1011.16
2019-05-05T03:05:34.068Z,1011.14
2019-05-05T03:06:34.181Z,1011.15
2019-05-05T03:07:34.343Z,1011.13
2019-05-05T03:08:33.586Z,1011.16
2019-05-05T03:09:32.234Z,1011.19
2019-05-05T03:10:33.956Z,1011.21
2019-05-05T03:11:34.197Z,1011.26
2019-05-05T03:12:34.482Z,1011.22
2019-05-05T03:13:33.714Z,1011.23
2019-05-05T03:14:34.026Z,1011.23
2019-05-05T03:15:33.652Z,1011.21
2019-05-05T03:16:34.033Z,1011.25
2019-05-05T03:17:33.964Z,1011.28
2019-05-05T03:18:33.755Z,1011.29
2019-05-05T03:19:33.833Z,1011.28
2019-05-05T03:20:31.958Z,1011.29
2019-05-05T03:21:33.529Z,1011.25
2019-05-05T03:22:33.982Z,1011.30
2019-05-05T03:23:33.446Z,1011.27
2019-05-05T03:24:33.979Z,1011.26
2019-05-05T03:25:33.417Z,1011.27
2019-05-05T03:26:33.897Z,1011.31
2019-05-05T03:27:34.000Z,1011.28
2019-05-05T03:28:31.748Z,1011.26
2019-05-05T03:29:33.567Z,1011.30
2019-05-05T03:30:35.330Z,1011.30
2019-05-05T03:31:34.923Z,1011.28
2019-05-05T03:32:31.648Z,1011.33
2019-05-05T03:33:35.007Z,1011.36
2019-05-05T03:34:31.608Z,1011.33
2019-05-05T03:35:31.572Z,1011.32
2019-05-05T03:36:31.544Z,1011.34
2019-05-05T03:37:31.527Z,1011.34
2019-05-05T03:38:33.551Z,1011.37
2019-05-05T03:39:31.470Z,1011.36
2019-05-05T03:40:31.444Z,1011.39
2019-05-05T03:41:31.569Z,1011.41
2019-05-05T03:42:31.394Z,1011.42
2019-05-05T03:43:31.368Z,1011.38
2019-05-05T03:44:33.446Z,1011.40
2019-05-05T03:45:31.319Z,1011.38
2019-05-05T03:46:31.292Z,1011.39
2019-05-05T03:47:33.547Z,1011.42
2019-05-05T03:48:31.241Z,1011.37
2019-05-05T03:49:31.215Z,1011.40
2019-05-05T03:50:31.189Z,1011.41
2019-05-05T03:51:31.171Z,1011.39
2019-05-05T03:52:31.138Z,1011.41
2019-05-05T03:53:31.114Z,1011.41
2019-05-05T03:54:31.087Z,1011.41
2019-05-05T03:55:31.062Z,1011.43
2019-05-05T03:56:31.040Z,1011.39
2019-05-05T03:57:31.012Z,1011.40
2019-05-05T03:58:30.988Z,1011.41
2019-05-05T03:59:30.961Z,1011.45
2019-05-05T04:00:30.935Z,1011.44
2019-05-05T04:01:30.910Z,1011.44
2019-05-05T04:02:30.884Z,1011.46
2019-05-05T04:03:30.868Z,1011.46
2019-05-05T04:04:30.843Z,1011.47
2019-05-05T04:05:30.808Z,1011.47
2019-05-05T04:06:30.782Z,1011.44
2019-05-05T04:07:30.757Z,1011.45
2019-05-05T04:08:30.737Z,1011.46
2019-05-05T04:09:30.709Z,1011.49
2019-05-05T04:10:30.681Z,1011.50
2019-05-05T04:11:30.661Z,1011.53
2019-05-05T04:12:30.628Z,1011.51
2019-05-05T04:13:30.606Z,1011.60
2019-05-05T04:14:30.577Z,1011.57
2019-05-05T04:15:30.554Z,1011.60
2019-05-05T04:16:30.537Z,1011.58
2019-05-05T04:17:30.509Z,1011.59
2019-05-05T04:18:30.478Z,1011.60
2019-05-05T04:19:30.451Z,1011.63
2019-05-05T04:20:30.583Z,1011.62
2019-05-05T04:21:33.893Z,1011.64
2019-05-05T04:22:30.374Z,1011.62
2019-05-05T04:23:30.358Z,1011.61
2019-05-05T04:24:30.323Z,1011.59
2019-05-05T04:25:30.300Z,1011.64
2019-05-05T04:26:30.276Z,1011.63
2019-05-05T04:27:30.246Z,1011.63
2019-05-05T04:28:30.223Z,1011.66
2019-05-05T04:29:30.197Z,1011.66
2019-05-05T04:30:30.172Z,1011.70
2019-05-05T04:31:30.148Z,1011.67
2019-05-05T04:32:30.122Z,1011.67
2019-05-05T04:33:30.099Z,1011.70
2019-05-05T04:34:30.071Z,1011.71
2019-05-05T04:35:30.048Z,1011.73
2019-05-05T04:36:30.020Z,1011.67
2019-05-05T04:37:29.996Z,1011.69
2019-05-05T04:38:29.969Z,1011.71
2019-05-05T04:39:29.955Z,1011.73
2019-05-05T04:40:29.918Z,1011.73
2019-05-05T04:41:29.897Z,1011.76
2019-05-05T04:42:29.879Z,1011.73
2019-05-05T04:43:29.846Z,1011.75
2019-05-05T04:44:29.830Z,1011.74
2019-05-05T04:45:29.799Z,1011.78
2019-05-05T04:46:29.769Z,1011.78
2019-05-05T04:47:29.745Z,1011.79
2019-05-05T04:48:29.720Z,1011.79
2019-05-05T04:49:29.698Z,1011.85
2019-05-05T04:50:29.679Z,1011.85
2019-05-05T04:51:29.645Z,1011.85
2019-05-05T04:52:29.622Z,1011.86
2019-05-05T04:53:29.600Z,1011.91
2019-05-05T04:54:29.572Z,1011.88
2019-05-05T04:55:29.546Z,1011.90
2019-05-05T04:56:30.048Z,1011.94
2019-05-05T04:57:29.505Z,1011.96
2019-05-05T04:58:29.473Z,1011.96
2019-05-05T04:59:29.497Z,1011.97
2019-05-05T05:00:29.421Z,1011.94
2019-05-05T05:01:29.400Z,1012.01
2019-05-05T05:02:29.374Z,1011.98
2019-05-05T05:03:29.350Z,1011.99
2019-05-05T05:04:29.328Z,1012.07
2019-05-05T05:05:29.301Z,1012.08
2019-05-05T05:06:29.277Z,1012.10
2019-05-05T05:07:29.251Z,1012.09
2019-05-05T05:08:29.229Z,1012.14
2019-05-05T05:09:29.202Z,1012.10
2019-05-05T05:10:29.179Z,1012.13
2019-05-05T05:11:29.153Z,1012.18
2019-05-05T05:12:29.129Z,1012.19
2019-05-05T05:13:29.107Z,1012.18
2019-05-05T05:14:29.083Z,1012.26
2019-05-05T05:15:29.071Z,1012.27
2019-05-05T05:16:29.036Z,1012.32
2019-05-05T05:17:29.011Z,1012.33
2019-05-05T05:18:28.986Z,1012.31
2019-05-05T05:19:28.962Z,1012.31
2019-05-05T05:20:28.940Z,1012.31
2019-05-05T05:21:28.921Z,1012.36
2019-05-05T05:22:28.892Z,1012.36
2019-05-05T05:23:29.750Z,1012.39
2019-05-05T05:24:28.845Z,1012.40
2019-05-05T05:25:28.823Z,1012.37
2019-05-05T05:26:28.811Z,1012.43
2019-05-05T05:27:28.790Z,1012.73
2019-05-05T05:28:28.753Z,1012.96
2019-05-05T05:29:28.731Z,1012.86
2019-05-05T05:30:28.722Z,1012.77
2019-05-05T05:31:28.686Z,1012.62
2019-05-05T05:32:28.669Z,1012.91
2019-05-05T05:33:28.640Z,1012.57
2019-05-05T05:34:28.619Z,1012.61
2019-05-05T05:35:28.748Z,1012.59
2019-05-05T05:36:28.576Z,1012.62
2019-05-05T05:37:28.552Z,1012.65
2019-05-05T05:38:28.530Z,1012.75
2019-05-05T05:39:28.511Z,1012.86
2019-05-05T05:40:28.490Z,1012.72
2019-05-05T05:41:28.466Z,1013.06
2019-05-05T05:42:28.445Z,1013.14
2019-05-05T05:43:28.423Z,1012.89
2019-05-05T05:44:28.405Z,1012.88
2019-05-05T05:45:28.385Z,1013.03
2019-05-05T05:46:28.369Z,1013.29
2019-05-05T05:47:28.342Z,1013.29
2019-05-05T05:48:28.320Z,1013.45
2019-05-05T05:49:28.300Z,1013.51
2019-05-05T05:50:28.282Z,1013.46
2019-05-05T05:51:28.270Z,1013.36
2019-05-05T05:52:28.245Z,1013.36
2019-05-05T05:53:28.222Z,1013.38
2019-05-05T05:54:28.204Z,1013.45
2019-05-05T05:55:28.186Z,1013.16
2019-05-05T05:56:28.171Z,1013.22
2019-05-05T05:57:28.149Z,1013.10
2019-05-05T05:58:28.138Z,1013.20
2019-05-05T05:59:28.117Z,1013.11
2019-05-05T06:00:28.097Z,1013.16
2019-05-05T06:01:28.077Z,1013.07
2019-05-05T06:02:28.060Z,1013.42
2019-05-05T06:03:28.042Z,1013.41
2019-05-05T06:04:28.024Z,1013.48
2019-05-05T06:05:28.014Z,1013.56
2019-05-05T06:06:27.990Z,1013.55
2019-05-05T06:07:27.980Z,1013.15
2019-05-05T06:08:29.907Z,1013.12
2019-05-05T06:09:27.940Z,1013.27
2019-05-05T06:10:27.921Z,1013.15
2019-05-05T06:11:27.912Z,1013.20
2019-05-05T06:12:27.889Z,1013.28
2019-05-05T06:13:27.879Z,1013.34
2019-05-05T06:14:27.854Z,1013.24
2019-05-05T06:15:27.842Z,1013.13
2019-05-05T06:16:27.819Z,1013.09
2019-05-05T06:17:27.806Z,1013.04
2019-05-05T06:18:27.791Z,1013.02
2019-05-05T06:19:27.770Z,1013.01
2019-05-05T06:20:27.774Z,1013.00
2019-05-05T06:21:27.735Z,1012.99
2019-05-05T06:22:31.301Z,1012.99
2019-05-05T06:23:27.708Z,1013.03
2019-05-05T06:24:27.685Z,1013.02
2019-05-05T06:25:27.674Z,1012.98
2019-05-05T06:26:27.647Z,1013.07
2019-05-05T06:27:27.629Z,1013.14
2019-05-05T06:28:27.610Z,1013.11
2019-05-05T06:29:27.592Z,1013.13
2019-05-05T06:30:27.574Z,1013.12
2019-05-05T06:31:27.564Z,1013.12
2019-05-05T06:32:27.543Z,1013.10
2019-05-05T06:33:27.523Z,1013.09
2019-05-05T06:34:27.499Z,1013.07
2019-05-05T06:35:27.479Z,1013.10
2019-05-05T06:36:27.459Z,1013.11
2019-05-05T06:37:27.440Z,1013.13
2019-05-05T06:38:27.419Z,1013.14
2019-05-05T06:39:27.403Z,1013.18
2019-05-05T06:40:27.382Z,1013.17
2019-05-05T06:41:27.358Z,1013.22
2019-05-05T06:42:27.340Z,1013.24
2019-05-05T06:43:27.321Z,1013.27
2019-05-05T06:44:27.299Z,1013.20
2019-05-05T06:45:27.286Z,1013.20
2019-05-05T06:46:27.259Z,1013.21
2019-05-05T06:47:27.238Z,1013.26
2019-05-05T06:48:27.219Z,1013.28
2019-05-05T06:49:27.203Z,1013.30
2019-05-05T06:50:27.185Z,1013.29
2019-05-05T06:51:27.163Z,1013.34
2019-05-05T06:52:27.137Z,1013.38
2019-05-05T06:53:27.132Z,1013.39
2019-05-05T06:54:27.096Z,1013.40
2019-05-05T06:55:27.077Z,1013.44
2019-05-05T06:56:27.055Z,1013.47
2019-05-05T06:57:27.039Z,1013.49
2019-05-05T06:58:27.015Z,1013.47
2019-05-05T06:59:26.994Z,1013.46
2019-05-05T07:00:26.972Z,1013.46
2019-05-05T07:01:26.963Z,1013.48
2019-05-05T07:02:26.932Z,1013.52
2019-05-05T07:03:26.912Z,1013.47
2019-05-05T07:04:26.897Z,1013.48
2019-05-05T07:05:26.868Z,1013.48
2019-05-05T07:06:26.847Z,1013.45
2019-05-05T07:07:26.827Z,1013.43
2019-05-05T07:08:26.809Z,1013.44
2019-05-05T07:09:26.791Z,1013.43
2019-05-05T07:10:26.779Z,1013.43
2019-05-05T07:11:26.756Z,1013.43
2019-05-05T07:12:26.722Z,1013.46
2019-05-05T07:13:26.701Z,1013.49
2019-05-05T07:14:26.681Z,1013.52
2019-05-05T07:15:26.660Z,1013.51
2019-05-05T07:16:26.643Z,1013.50
2019-05-05T07:17:26.617Z,1013.48
2019-05-05T07:18:26.602Z,1013.46
2019-05-05T07:19:26.581Z,1013.46
2019-05-05T07:20:26.557Z,1013.46
2019-05-05T07:21:26.534Z,1013.45
2019-05-05T07:22:26.516Z,1013.44
2019-05-05T07:23:26.492Z,1013.46
2019-05-05T07:24:26.480Z,1013.45
2019-05-05T07:25:39.585Z,1013.42
2019-05-05T07:26:26.446Z,1013.40
2019-05-05T07:27:26.429Z,1013.39
2019-05-05T07:28:26.405Z,1013.42
2019-05-05T07:29:26.383Z,1013.45
2019-05-05T07:30:26.362Z,1013.42
2019-05-05T07:31:26.328Z,1013.42
2019-05-05T07:32:26.307Z,1013.44
2019-05-05T07:33:26.281Z,1013.43
2019-05-05T07:34:26.266Z,1013.46
2019-05-05T07:35:26.283Z,1013.48
2019-05-05T07:36:26.231Z,1013.45
2019-05-05T07:37:26.197Z,1013.44
2019-05-05T07:38:26.180Z,1013.47
2019-05-05T07:39:26.156Z,1013.46
2019-05-05T07:40:26.137Z,1013.49
2019-05-05T07:41:26.117Z,1013.49
2019-05-05T07:42:26.088Z,1013.49
2019-05-05T07:43:26.067Z,1013.49
2019-05-05T07:44:29.579Z,1013.53
2019-05-05T07:45:26.058Z,1013.49
2019-05-05T07:46:26.012Z,1013.50
2019-05-05T07:47:25.983Z,1013.53
2019-05-05T07:48:25.961Z,1013.51
2019-05-05T07:49:25.949Z,1013.55
2019-05-05T07:50:32.022Z,1013.54
2019-05-05T07:51:25.896Z,1013.53
2019-05-05T07:52:25.891Z,1013.59
2019-05-05T07:53:25.871Z,1013.56
2019-05-05T07:54:25.995Z,1013.55
2019-05-05T07:55:25.829Z,1013.56
2019-05-05T07:56:25.793Z,1013.58
2019-05-05T07:57:25.770Z,1013.59
2019-05-05T07:58:25.752Z,1013.57
2019-05-05T07:59:25.730Z,1013.57
2019-05-05T08:00:25.716Z,1013.58
2019-05-05T08:01:25.694Z,1013.58
2019-05-05T08:02:25.672Z,1013.52
2019-05-05T08:03:25.646Z,1013.52
2019-05-05T08:04:25.632Z,1013.58
2019-05-05T08:05:25.604Z,1013.55
2019-05-05T08:06:25.583Z,1013.60
2019-05-05T08:07:25.568Z,1013.59
2019-05-05T08:08:25.551Z,1013.64
2019-05-05T08:09:25.523Z,1013.65
2019-05-05T08:10:25.500Z,1013.68
2019-05-05T08:11:25.481Z,1013.71
2019-05-05T08:12:25.473Z,1013.75
2019-05-05T08:13:25.449Z,1013.73
2019-05-05T08:14:25.428Z,1013.74
2019-05-05T08:15:25.399Z,1013.73
2019-05-05T08:16:25.395Z,1013.75
2019-05-05T08:17:25.370Z,1013.81
2019-05-05T08:18:25.346Z,1013.80
2019-05-05T08:19:25.325Z,1013.78
2019-05-05T08:20:25.299Z,1013.81
2019-05-05T08:21:25.279Z,1013.85
2019-05-05T08:22:25.274Z,1013.86
2019-05-05T08:23:30.317Z,1013.87
2019-05-05T08:24:25.221Z,1013.89
2019-05-05T08:25:36.874Z,1013.95
2019-05-05T08:26:25.188Z,1013.90
2019-05-05T08:27:25.189Z,1013.91
2019-05-05T08:28:25.148Z,1013.90
2019-05-05T08:29:25.125Z,1013.91
2019-05-05T08:30:25.115Z,1013.90
2019-05-05T08:31:25.093Z,1013.91
2019-05-05T08:32:25.075Z,1013.93
2019-05-05T08:33:25.049Z,1013.94
2019-05-05T08:34:25.032Z,1013.92
2019-05-05T08:35:25.014Z,1013.92
2019-05-05T08:36:24.999Z,1013.92
2019-05-05T08:37:24.986Z,1013.90
2019-05-05T08:38:24.957Z,1013.89
2019-05-05T08:39:24.965Z,1013.88
2019-05-05T08:40:24.939Z,1013.88
2019-05-05T08:41:24.902Z,1013.90
2019-05-05T08:42:24.913Z,1013.91
2019-05-05T08:43:24.876Z,1013.91
2019-05-05T08:44:24.849Z,1013.87
2019-05-05T08:45:26.705Z,1013.89
2019-05-05T08:46:24.842Z,1013.95
2019-05-05T08:47:28.010Z,1013.91
2019-05-05T08:48:24.803Z,1013.88
2019-05-05T08:49:24.770Z,1013.96
2019-05-05T08:50:26.951Z,1013.83
2019-05-05T08:51:24.803Z,1013.77
2019-05-05T08:52:24.730Z,1013.79
2019-05-05T08:53:24.705Z,1013.79
2019-05-05T08:54:24.673Z,1013.70
2019-05-05T08:55:28.121Z,1013.71
2019-05-05T08:56:24.643Z,1013.71
2019-05-05T08:57:24.621Z,1013.66
2019-05-05T08:58:24.611Z,1013.74
2019-05-05T08:59:24.587Z,1013.70
2019-05-05T09:00:24.600Z,1013.71
2019-05-05T09:01:24.560Z,1013.70
2019-05-05T09:02:24.534Z,1013.69
2019-05-05T09:03:24.516Z,1013.77
2019-05-05T09:04:24.764Z,1013.75
2019-05-05T09:05:24.487Z,1013.71
2019-05-05T09:06:24.470Z,1013.62
2019-05-05T09:07:24.462Z,1013.59
2019-05-05T09:08:24.428Z,1013.76
2019-05-05T09:09:24.426Z,1013.88
2019-05-05T09:10:24.399Z,1013.89
2019-05-05T09:11:24.390Z,1013.79
2019-05-05T09:12:24.358Z,1013.75
2019-05-05T09:13:24.727Z,1013.78
2019-05-05T09:14:24.335Z,1013.86
2019-05-05T09:15:24.463Z,1013.74
2019-05-05T09:16:24.317Z,1013.71
2019-05-05T09:17:26.448Z,1013.65
2019-05-05T09:18:24.670Z,1013.73
2019-05-05T09:19:24.252Z,1013.76
2019-05-05T09:20:24.377Z,1013.67
2019-05-05T09:21:24.229Z,1013.64
2019-05-05T09:22:24.638Z,1013.66
2019-05-05T09:23:24.193Z,1013.73
2019-05-05T09:24:24.980Z,1013.91
2019-05-05T09:25:24.155Z,1013.77
2019-05-05T09:26:24.143Z,1013.75
2019-05-05T09:27:24.872Z,1013.75
2019-05-05T09:28:24.116Z,1014.00
2019-05-05T09:29:24.331Z,1013.84
2019-05-05T09:30:24.505Z,1013.83
2019-05-05T09:31:24.078Z,1013.78
2019-05-05T09:32:24.362Z,1013.87
2019-05-05T09:33:24.765Z,1014.01
2019-05-05T09:34:24.114Z,1013.87
2019-05-05T09:35:24.109Z,1013.87
2019-05-05T09:36:24.347Z,1013.83
2019-05-05T09:37:24.694Z,1013.83
2019-05-05T09:38:24.008Z,1013.81
2019-05-05T09:39:24.049Z,1013.83
2019-05-05T09:40:24.206Z,1014.09
2019-05-05T09:41:23.918Z,1013.91
2019-05-05T09:42:23.899Z,1013.83
2019-05-05T09:43:24.157Z,1013.82
2019-05-05T09:44:24.250Z,1013.91
2019-05-05T09:45:24.447Z,1013.99
2019-05-05T09:46:23.836Z,1014.13
2019-05-05T09:47:24.076Z,1014.11
2019-05-05T09:48:24.371Z,1013.81
2019-05-05T09:49:24.661Z,1013.79
2019-05-05T09:50:23.817Z,1013.77
2019-05-05T09:51:24.219Z,1013.75
2019-05-05T09:52:24.421Z,1013.70
2019-05-05T09:53:24.813Z,1013.72
2019-05-05T09:54:24.319Z,1013.63
2019-05-05T09:55:24.170Z,1013.64
2019-05-05T09:56:23.736Z,1013.75
2019-05-05T09:57:23.853Z,1013.82
2019-05-05T09:58:24.195Z,1013.84
2019-05-05T09:59:24.140Z,1013.80
2019-05-05T10:00:24.395Z,1013.81
2019-05-05T10:01:24.562Z,1013.87
2019-05-05T10:02:24.067Z,1013.89
2019-05-05T10:03:23.575Z,1013.90
2019-05-05T10:04:24.268Z,1013.86
2019-05-05T10:05:23.705Z,1013.86
2019-05-05T10:06:24.415Z,1013.88
2019-05-05T10:07:24.193Z,1013.83
2019-05-05T10:08:23.744Z,1013.86
2019-05-05T10:09:24.208Z,1013.87
2019-05-05T10:10:24.358Z,1013.93
2019-05-05T10:11:23.882Z,1013.88
2019-05-05T10:12:23.423Z,1013.87
2019-05-05T10:13:23.412Z,1013.92
2019-05-05T10:14:23.389Z,1013.90
2019-05-05T10:15:23.385Z,1013.93
2019-05-05T10:16:23.586Z,1013.93
2019-05-05T10:17:24.371Z,1013.89
2019-05-05T10:18:25.405Z,1013.93
2019-05-05T10:19:24.338Z,1014.00
2019-05-05T10:20:23.712Z,1014.00
2019-05-05T10:21:24.584Z,1013.95
2019-05-05T10:22:23.879Z,1014.13
2019-05-05T10:23:23.620Z,1014.24
2019-05-05T10:24:28.659Z,1014.28
2019-05-05T10:25:23.882Z,1014.35
2019-05-05T10:26:23.885Z,1014.32
2019-05-05T10:27:23.160Z,1014.27
2019-05-05T10:28:23.988Z,1014.30
2019-05-05T10:29:23.134Z,1014.30
2019-05-05T10:30:23.851Z,1014.31
2019-05-05T10:31:24.140Z,1014.32
2019-05-05T10:32:24.524Z,1014.25
2019-05-05T10:33:24.699Z,1014.33
2019-05-05T10:34:24.203Z,1014.33
2019-05-05T10:35:23.748Z,1014.33
2019-05-05T10:36:24.465Z,1014.33
2019-05-05T10:37:23.566Z,1014.22
2019-05-05T10:38:23.613Z,1014.18
2019-05-05T10:40:21.949Z,1014.27
2019-05-05T10:41:23.456Z,1014.17
2019-05-05T10:42:21.720Z,1014.10
2019-05-05T10:43:23.703Z,1014.10
2019-05-05T10:44:21.699Z,1014.01
2019-05-05T10:45:21.688Z,1014.03
2019-05-05T10:46:23.502Z,1014.03
2019-05-05T10:47:21.670Z,1014.01
2019-05-05T10:48:23.574Z,1013.99
2019-05-05T10:49:21.642Z,1014.04
2019-05-05T10:50:21.631Z,1014.03
2019-05-05T10:51:23.791Z,1014.00
2019-05-05T10:52:21.608Z,1014.04
2019-05-05T10:53:21.597Z,1013.98
2019-05-05T10:54:23.509Z,1013.94
2019-05-05T10:55:23.677Z,1014.00
2019-05-05T10:56:21.552Z,1013.95
2019-05-05T10:57:23.563Z,1013.96
2019-05-05T10:58:21.546Z,1013.99
2019-05-05T10:59:23.677Z,1014.01
2019-05-05T11:00:21.523Z,1014.00
2019-05-05T11:01:23.545Z,1013.99
2019-05-05T11:02:21.513Z,1013.98
2019-05-05T11:03:23.585Z,1013.97
2019-05-05T11:04:21.443Z,1013.95
2019-05-05T11:05:23.487Z,1013.92
2019-05-05T11:06:21.410Z,1013.93
2019-05-05T11:07:23.520Z,1013.95
2019-05-05T11:08:21.385Z,1013.96
2019-05-05T11:09:21.366Z,1014.06
2019-05-05T11:10:21.354Z,1014.09
2019-05-05T11:11:21.330Z,1014.15
2019-05-05T11:12:21.319Z,1014.20
2019-05-05T11:13:21.302Z,1014.26
2019-05-05T11:14:21.281Z,1014.24
2019-05-05T11:15:21.282Z,1014.12
2019-05-05T11:16:21.267Z,1014.12
2019-05-05T11:17:24.636Z,1014.12
2019-05-05T11:18:21.223Z,1014.18
2019-05-05T11:19:21.202Z,1014.44
2019-05-05T11:20:21.187Z,1014.46
2019-05-05T11:21:21.171Z,1014.53
2019-05-05T11:22:21.178Z,1014.57
2019-05-05T11:23:21.140Z,1014.57
2019-05-05T11:24:21.133Z,1014.63
2019-05-05T11:25:21.113Z,1014.69
2019-05-05T11:26:21.105Z,1014.72
2019-05-05T11:27:21.100Z,1014.74
2019-05-05T11:28:21.073Z,1014.81
2019-05-05T11:29:21.065Z,1014.83
2019-05-05T11:30:21.053Z,1014.77
2019-05-05T11:31:21.034Z,1014.64
2019-05-05T11:32:21.039Z,1014.66
2019-05-05T11:33:21.026Z,1014.36
2019-05-05T11:34:21.012Z,1014.57
2019-05-05T11:35:20.988Z,1014.41
2019-05-05T11:36:20.990Z,1014.36
2019-05-05T11:37:20.974Z,1014.26
2019-05-05T11:38:20.954Z,1014.22
2019-05-05T11:39:20.960Z,1014.25
2019-05-05T11:40:20.929Z,1014.22
2019-05-05T11:41:20.937Z,1014.20
2019-05-05T11:42:20.903Z,1014.29
2019-05-05T11:43:20.895Z,1014.29
2019-05-05T11:44:20.882Z,1014.28
2019-05-05T11:45:20.869Z,1014.30
2019-05-05T11:46:20.851Z,1014.25
2019-05-05T11:47:20.841Z,1014.20
2019-05-05T11:48:20.842Z,1014.26
2019-05-05T11:49:20.820Z,1014.23
2019-05-05T11:50:20.799Z,1014.22
2019-05-05T11:51:20.782Z,1014.22
2019-05-05T11:52:20.767Z,1014.25
2019-05-05T11:53:20.753Z,1014.21
2019-05-05T11:54:20.745Z,1014.27
2019-05-05T11:55:20.724Z,1014.24
2019-05-05T11:56:20.739Z,1014.21
2019-05-05T11:57:20.701Z,1014.26
2019-05-05T11:58:20.699Z,1014.24
2019-05-05T11:59:20.688Z,1014.30
2019-05-05T12:00:20.658Z,1014.26
2019-05-05T12:01:20.697Z,1014.27
2019-05-05T12:02:20.623Z,1014.28
2019-05-05T12:03:20.622Z,1014.26
2019-05-05T12:04:20.608Z,1014.26
2019-05-05T12:05:20.583Z,1014.22
2019-05-05T12:06:20.559Z,1014.27